createdAt,value
2023-04-25T00:00:15.956Z,43.59
2023-04-25T00:02:42.889Z,44.24
2023-04-25T00:05:10.294Z,44.10
2023-04-25T00:07:37.132Z,44.15
2023-04-25T00:10:04.852Z,43.98
2023-04-25T00:12:31.653Z,44.30
2023-04-25T00:14:58.411Z,43.93
2023-04-25T00:17:28.142Z,44.13
2023-04-25T00:19:55.220Z,43.63
2023-04-25T00:22:22.255Z,43.69
2023-04-25T00:24:49.010Z,43.62
2023-04-25T00:27:15.841Z,44.27
2023-04-25T00:29:42.539Z,43.88
2023-04-25T00:32:09.251Z,43.77
2023-04-25T00:34:35.960Z,44.08
2023-04-25T00:37:03.403Z,44.34
2023-04-25T00:39:30.230Z,44.23
2023-04-25T00:41:56.987Z,44.08
2023-04-25T00:44:24.970Z,44.16
2023-04-25T00:46:51.961Z,44.22
2023-04-25T00:49:18.715Z,44.47
2023-04-25T00:51:46.002Z,43.82
2023-04-25T00:54:15.664Z,43.79
2023-04-25T00:56:43.060Z,43.73
2023-04-25T00:59:11.091Z,44.51
2023-04-25T01:01:39.478Z,43.93
2023-04-25T01:04:06.587Z,44.41
2023-04-25T01:06:33.316Z,44.04
2023-04-25T01:09:01.249Z,44.32
2023-04-25T01:11:27.995Z,44.08
2023-04-25T01:13:54.804Z,44.58
2023-04-25T01:16:21.624Z,44.27
2023-04-25T01:18:48.979Z,44.63
2023-04-25T01:21:15.952Z,44.45
2023-04-25T01:23:43.418Z,44.01
2023-04-25T01:26:12.460Z,44.54
2023-04-25T01:28:43.471Z,44.62
2023-04-25T01:31:10.764Z,44.58
2023-04-25T01:33:37.909Z,44.75
2023-04-25T01:36:05.509Z,44.29
2023-04-25T01:38:35.139Z,44.40
2023-04-25T01:41:02.168Z,43.95
2023-04-25T01:43:29.058Z,43.89
2023-04-25T01:45:56.465Z,44.49
2023-04-25T01:48:23.327Z,44.07
2023-04-25T01:50:50.080Z,43.98
2023-04-25T01:53:17.011Z,44.62
2023-04-25T01:55:43.866Z,44.08
2023-04-25T01:58:11.062Z,44.33
2023-04-25T02:00:42.028Z,44.01
2023-04-25T02:03:09.988Z,44.01
2023-04-25T02:05:38.422Z,43.89
2023-04-25T02:08:09.763Z,44.22
2023-04-25T02:10:37.567Z,44.62
2023-04-25T02:13:06.673Z,44.20
2023-04-25T02:15:33.507Z,44.50
2023-04-25T02:18:01.573Z,44.43
2023-04-25T02:20:30.130Z,44.21
2023-04-25T02:22:57.211Z,44.08
2023-04-25T02:25:24.176Z,44.17
2023-04-25T02:27:52.478Z,44.67
2023-04-25T02:30:19.392Z,44.34
2023-04-25T02:32:46.366Z,44.09
2023-04-25T02:35:13.102Z,44.67
2023-04-25T02:37:40.660Z,44.45
2023-04-25T02:40:08.470Z,44.08
2023-04-25T02:42:35.982Z,44.62
2023-04-25T02:45:03.564Z,44.76
2023-04-25T02:47:31.092Z,44.33
2023-04-25T02:49:57.924Z,44.49
2023-04-25T02:52:24.677Z,44.09
2023-04-25T02:54:51.734Z,44.12
2023-04-25T02:57:18.524Z,44.50
2023-04-25T02:59:45.223Z,44.50
2023-04-25T03:02:12.044Z,44.76
2023-04-25T03:04:38.868Z,44.57
2023-04-25T03:07:06.534Z,43.99
2023-04-25T03:09:33.308Z,44.30
2023-04-25T03:12:00.062Z,44.34
2023-04-25T03:14:26.817Z,44.00
2023-04-25T03:16:53.594Z,44.25
2023-04-25T03:19:21.568Z,44.61
2023-04-25T03:21:48.515Z,44.55
2023-04-25T03:24:15.269Z,43.92
2023-04-25T03:26:41.941Z,44.27
2023-04-25T03:29:08.939Z,44.11
2023-04-25T03:31:35.704Z,44.42
2023-04-25T03:34:02.526Z,44.56
2023-04-25T03:36:29.259Z,43.74
2023-04-25T03:38:56.032Z,44.04
2023-04-25T03:41:22.825Z,44.70
2023-04-25T03:43:49.738Z,44.09
2023-04-25T03:46:16.767Z,44.11
2023-04-25T03:48:43.697Z,44.62
2023-04-25T03:51:10.516Z,44.70
2023-04-25T03:53:37.315Z,44.45
2023-04-25T03:56:04.198Z,44.41
2023-04-25T03:58:30.904Z,44.33
2023-04-25T04:00:57.582Z,44.12
2023-04-25T04:03:24.590Z,44.34
2023-04-25T04:05:51.627Z,44.29
2023-04-25T04:08:18.476Z,44.49
2023-04-25T04:10:45.270Z,44.60
2023-04-25T04:13:12.025Z,44.07
2023-04-25T04:15:38.823Z,44.48
2023-04-25T04:18:05.741Z,43.92
2023-04-25T04:20:32.492Z,44.45
2023-04-25T04:22:59.265Z,44.65
2023-04-25T04:25:26.072Z,44.14
2023-04-25T04:27:55.822Z,44.06
2023-04-25T04:30:25.419Z,44.21
2023-04-25T04:32:53.153Z,44.20
2023-04-25T04:35:20.141Z,44.18
2023-04-25T04:37:47.004Z,44.42
2023-04-25T04:40:16.715Z,44.89
2023-04-25T04:42:44.593Z,44.75
2023-04-25T04:45:11.662Z,44.75
2023-04-25T04:47:40.702Z,44.37
2023-04-25T04:50:10.504Z,44.35
2023-04-25T04:52:38.538Z,44.64
2023-04-25T04:55:07.054Z,44.67
2023-04-25T04:57:34.182Z,44.45
2023-04-25T05:00:01.949Z,44.81
2023-04-25T05:02:29.307Z,44.58
2023-04-25T05:04:58.066Z,44.17
2023-04-25T05:07:25.029Z,44.75
2023-04-25T05:09:51.865Z,44.05
2023-04-25T05:12:18.758Z,44.24
2023-04-25T05:14:45.653Z,44.53
2023-04-25T05:17:12.546Z,44.42
2023-04-25T05:19:40.658Z,44.89
2023-04-25T05:22:07.487Z,44.08
2023-04-25T05:24:34.455Z,44.61
2023-04-25T05:27:01.339Z,44.55
2023-04-25T05:29:28.178Z,44.93
2023-04-25T05:31:54.985Z,44.30
2023-04-25T05:34:21.778Z,44.44
2023-04-25T05:36:49.660Z,44.35
2023-04-25T05:39:18.599Z,44.36
2023-04-25T05:41:45.475Z,44.60
2023-04-25T05:44:12.275Z,44.32
2023-04-25T05:46:39.112Z,44.54
2023-04-25T05:49:06.548Z,45.03
2023-04-25T05:51:33.631Z,44.92
2023-04-25T05:54:00.516Z,44.91
2023-04-25T05:56:27.330Z,44.86
2023-04-25T05:58:54.409Z,44.72
2023-04-25T06:01:21.161Z,44.73
2023-04-25T06:03:48.745Z,44.83
2023-04-25T06:06:15.673Z,44.92
2023-04-25T06:08:42.662Z,44.99
2023-04-25T06:11:09.461Z,44.59
2023-04-25T06:13:36.272Z,44.30
2023-04-25T06:16:03.074Z,44.24
2023-04-25T06:18:29.824Z,44.75
2023-04-25T06:20:56.630Z,44.86
2023-04-25T06:23:23.396Z,44.60
2023-04-25T06:25:50.198Z,44.95
2023-04-25T06:28:16.996Z,45.02
2023-04-25T06:30:43.720Z,44.96
2023-04-25T06:33:10.643Z,44.36
2023-04-25T06:35:37.400Z,44.75
2023-04-25T06:38:04.118Z,45.15
2023-04-25T06:40:32.255Z,44.60
2023-04-25T06:42:59.067Z,44.78
2023-04-25T06:45:25.859Z,44.95
2023-04-25T06:47:52.711Z,44.51
2023-04-25T06:50:19.462Z,44.74
2023-04-25T06:52:46.179Z,44.25
2023-04-25T06:55:12.882Z,44.65
2023-04-25T06:57:39.641Z,44.74
2023-04-25T07:00:09.721Z,44.52
2023-04-25T07:02:36.978Z,44.14
2023-04-25T07:05:05.565Z,44.63
2023-04-25T07:07:32.302Z,43.90
2023-04-25T07:09:59.089Z,44.41
2023-04-25T07:12:25.789Z,44.11
2023-04-25T07:14:52.684Z,43.63
2023-04-25T07:17:19.428Z,43.78
2023-04-25T07:19:46.363Z,44.05
2023-04-25T07:22:13.184Z,44.73
2023-04-25T07:24:40.535Z,43.97
2023-04-25T07:27:07.413Z,44.37
2023-04-25T07:29:36.966Z,43.88
2023-04-25T07:32:03.902Z,44.12
2023-04-25T07:34:31.583Z,44.20
2023-04-25T07:36:58.325Z,43.99
2023-04-25T07:39:25.255Z,44.28
2023-04-25T07:41:54.529Z,44.60
2023-04-25T07:44:22.532Z,43.95
2023-04-25T07:46:49.390Z,44.48
2023-04-25T07:49:16.512Z,44.16
2023-04-25T07:51:44.676Z,44.31
2023-04-25T07:54:15.363Z,44.83
2023-04-25T07:56:52.000Z,43.93
2023-04-25T07:59:19.938Z,43.91
2023-04-25T08:01:46.728Z,44.26
2023-04-25T08:04:13.805Z,44.86
2023-04-25T08:06:41.753Z,43.86
2023-04-25T08:09:10.536Z,44.59
2023-04-25T08:11:37.575Z,44.05
2023-04-25T08:14:04.337Z,43.84
2023-04-25T08:16:31.589Z,43.94
2023-04-25T08:18:58.424Z,44.07
2023-04-25T08:21:25.248Z,43.77
2023-04-25T08:23:52.041Z,43.76
2023-04-25T08:26:18.829Z,44.11
2023-04-25T08:28:45.536Z,43.92
2023-04-25T08:31:12.320Z,44.16
2023-04-25T08:33:39.229Z,44.45
2023-04-25T08:36:06.892Z,44.01
2023-04-25T08:38:33.733Z,44.93
2023-04-25T08:41:02.287Z,43.85
2023-04-25T08:43:32.037Z,44.52
2023-04-25T08:46:02.330Z,44.92
2023-04-25T08:48:34.545Z,44.59
2023-04-25T08:51:03.894Z,44.08
2023-04-25T08:53:33.913Z,44.32
2023-04-25T08:56:05.423Z,44.22
2023-04-25T08:58:33.162Z,44.03
2023-04-25T09:01:01.268Z,44.26
2023-04-25T09:03:29.171Z,44.32
2023-04-25T09:05:57.864Z,44.39
2023-04-25T09:08:24.746Z,44.51
2023-04-25T09:10:51.526Z,44.50
2023-04-25T09:13:28.874Z,44.49
2023-04-25T09:15:57.869Z,44.30
2023-04-25T09:18:30.241Z,44.56
2023-04-25T09:21:13.149Z,44.98
2023-04-25T09:23:51.024Z,44.40
2023-04-25T09:26:20.631Z,44.80
2023-04-25T09:28:49.266Z,45.25
2023-04-25T09:31:25.842Z,45.38
2023-04-25T09:34:22.005Z,45.14
2023-04-25T09:36:55.648Z,45.41
2023-04-25T09:39:23.397Z,45.03
2023-04-25T09:41:55.438Z,45.14
2023-04-25T09:44:25.669Z,45.23
2023-04-25T09:46:54.879Z,44.84
2023-04-25T09:49:22.556Z,44.93
2023-04-25T09:51:57.148Z,44.51
2023-04-25T09:54:27.726Z,44.86
2023-04-25T09:56:55.101Z,44.62
2023-04-25T09:59:24.000Z,44.51
2023-04-25T10:01:52.048Z,44.86
2023-04-25T10:04:23.543Z,44.48
2023-04-25T10:06:51.781Z,44.13
2023-04-25T10:09:22.176Z,44.61
2023-04-25T10:11:52.375Z,44.64
2023-04-25T10:14:20.628Z,44.36
2023-04-25T10:16:48.576Z,43.94
2023-04-25T10:19:16.758Z,43.73
2023-04-25T10:21:56.984Z,44.59
2023-04-25T10:24:24.654Z,44.22
2023-04-25T10:26:52.328Z,44.60
2023-04-25T10:29:26.622Z,43.97
2023-04-25T10:31:54.006Z,44.25
2023-04-25T10:34:26.995Z,44.35
2023-04-25T10:36:54.607Z,44.07
2023-04-25T10:39:26.290Z,44.49
2023-04-25T10:42:00.189Z,44.05
2023-04-25T10:44:31.182Z,44.57
2023-04-25T10:47:01.927Z,43.91
2023-04-25T10:49:43.170Z,44.07
2023-04-25T10:52:25.135Z,43.80
2023-04-25T10:54:57.387Z,43.82
2023-04-25T10:57:38.328Z,43.48
2023-04-25T11:00:13.038Z,43.78
2023-04-25T11:02:53.644Z,43.71
2023-04-25T11:05:43.812Z,43.07
2023-04-25T11:08:35.651Z,42.49
2023-04-25T11:11:03.540Z,42.98
2023-04-25T11:13:31.801Z,43.55
2023-04-25T11:16:07.338Z,43.43
2023-04-25T11:18:43.144Z,43.25
2023-04-25T11:21:10.790Z,43.65
2023-04-25T11:23:37.949Z,43.17
2023-04-25T11:26:08.061Z,42.72
2023-04-25T11:28:34.820Z,43.01
2023-04-25T11:31:01.686Z,42.14
2023-04-25T11:33:28.731Z,42.88
2023-04-25T11:35:57.611Z,43.00
2023-04-25T11:38:27.242Z,42.79
2023-04-25T11:40:55.247Z,43.17
2023-04-25T11:43:24.779Z,43.19
2023-04-25T11:45:52.305Z,42.77
2023-04-25T11:48:25.767Z,42.54
2023-04-25T11:50:53.029Z,42.18
2023-04-25T11:53:19.993Z,41.66
2023-04-25T11:55:46.903Z,42.00
2023-04-25T11:58:15.231Z,42.12
2023-04-25T12:00:50.331Z,42.27
2023-04-25T12:03:19.596Z,42.21
2023-04-25T12:05:47.701Z,41.74
2023-04-25T12:08:16.049Z,42.28
2023-04-25T12:10:47.134Z,42.33
2023-04-25T12:13:30.077Z,42.04
2023-04-25T12:15:57.800Z,42.58
2023-04-25T12:18:28.677Z,42.37
2023-04-25T12:20:56.246Z,42.61
2023-04-25T12:23:30.170Z,42.50
2023-04-25T12:25:57.689Z,42.34
2023-04-25T12:28:28.628Z,42.07
2023-04-25T12:30:56.624Z,41.81
2023-04-25T12:33:23.879Z,41.81
2023-04-25T12:35:50.924Z,42.11
2023-04-25T12:38:28.704Z,41.48
2023-04-25T12:40:55.644Z,41.41
2023-04-25T12:43:23.172Z,41.42
2023-04-25T12:45:54.683Z,42.34
2023-04-25T12:48:22.377Z,41.62
2023-04-25T12:50:50.929Z,41.99
2023-04-25T12:53:18.792Z,42.22
2023-04-25T12:55:49.352Z,42.58
2023-04-25T12:58:17.463Z,42.43
2023-04-25T13:00:44.817Z,42.07
2023-04-25T13:03:12.453Z,42.64
2023-04-25T13:05:40.016Z,42.73
2023-04-25T13:08:07.027Z,42.43
2023-04-25T13:10:35.207Z,42.60
2023-04-25T13:13:02.583Z,42.33
2023-04-25T13:15:29.423Z,42.13
2023-04-25T13:17:57.298Z,41.87
2023-04-25T13:20:24.533Z,42.48
2023-04-25T13:22:51.453Z,41.74
2023-04-25T13:25:18.329Z,42.26
2023-04-25T13:27:45.960Z,42.48
2023-04-25T13:30:13.281Z,42.55
2023-04-25T13:32:40.838Z,42.06
2023-04-25T13:35:11.230Z,42.56
2023-04-25T13:37:39.061Z,42.19
2023-04-25T13:40:11.338Z,42.52
2023-04-25T13:42:39.554Z,41.94
2023-04-25T13:45:07.172Z,41.86
2023-04-25T13:47:34.594Z,42.48
2023-04-25T13:50:03.902Z,42.03
2023-04-25T13:52:31.020Z,42.26
2023-04-25T13:54:58.088Z,42.45
2023-04-25T13:57:25.358Z,42.69
2023-04-25T13:59:53.225Z,42.49
2023-04-25T14:02:20.420Z,41.71
2023-04-25T14:04:47.361Z,42.03
2023-04-25T14:07:17.341Z,42.89
2023-04-25T14:09:44.230Z,42.45
2023-04-25T14:12:11.658Z,42.41
2023-04-25T14:14:38.848Z,42.17
2023-04-25T14:17:06.280Z,42.70
2023-04-25T14:19:33.094Z,42.51
2023-04-25T14:22:00.149Z,42.35
2023-04-25T14:24:28.023Z,42.57
2023-04-25T14:26:54.935Z,42.99
2023-04-25T14:29:21.823Z,42.60
2023-04-25T14:31:49.254Z,42.62
2023-04-25T14:34:16.305Z,42.72
2023-04-25T14:36:43.307Z,42.07
2023-04-25T14:39:11.301Z,42.40
2023-04-25T14:41:38.840Z,42.04
2023-04-25T14:44:05.778Z,42.30
2023-04-25T14:46:32.731Z,41.62
2023-04-25T14:48:59.813Z,42.06
2023-04-25T14:51:27.633Z,42.53
2023-04-25T14:53:54.749Z,42.51
2023-04-25T14:56:21.729Z,42.62
2023-04-25T14:58:48.773Z,42.33
2023-04-25T15:01:15.827Z,42.22
2023-04-25T15:03:43.296Z,42.82
2023-04-25T15:06:10.735Z,42.74
2023-04-25T15:08:37.642Z,42.30
2023-04-25T15:11:04.901Z,42.55
2023-04-25T15:13:32.269Z,42.67
2023-04-25T15:15:59.417Z,42.68
2023-04-25T15:18:26.453Z,42.06
2023-04-25T15:20:54.640Z,42.33
2023-04-25T15:23:22.783Z,42.00
2023-04-25T15:25:52.305Z,42.49
2023-04-25T15:28:20.090Z,42.25
2023-04-25T15:30:47.017Z,42.65
2023-04-25T15:33:14.648Z,42.11
2023-04-25T15:35:41.734Z,42.30
2023-04-25T15:38:09.780Z,42.27
2023-04-25T15:40:36.699Z,42.36
2023-04-25T15:43:03.618Z,42.00
2023-04-25T15:45:32.541Z,42.26
2023-04-25T15:47:59.394Z,42.59
2023-04-25T15:50:26.512Z,42.38
2023-04-25T15:52:53.795Z,41.92
2023-04-25T15:55:27.034Z,41.70
2023-04-25T15:57:57.167Z,42.06
2023-04-25T16:00:24.186Z,41.58
2023-04-25T16:02:51.195Z,41.32
2023-04-25T16:05:18.588Z,41.42
2023-04-25T16:07:47.099Z,40.96
2023-04-25T16:10:14.457Z,41.26
2023-04-25T16:12:42.067Z,40.88
2023-04-25T16:15:09.594Z,41.08
2023-04-25T16:17:36.608Z,41.70
2023-04-25T16:20:10.126Z,41.46
2023-04-25T16:22:39.043Z,41.58
2023-04-25T16:25:07.112Z,42.18
2023-04-25T16:27:39.235Z,41.81
2023-04-25T16:30:08.573Z,41.83
2023-04-25T16:32:36.068Z,41.83
2023-04-25T16:35:03.114Z,42.00
2023-04-25T16:37:30.012Z,41.60
2023-04-25T16:39:56.827Z,42.12
2023-04-25T16:42:23.659Z,41.93
2023-04-25T16:44:50.385Z,42.18
2023-04-25T16:47:20.050Z,42.00
2023-04-25T16:49:47.204Z,42.25
2023-04-25T16:52:14.499Z,41.59
2023-04-25T16:54:41.281Z,42.18
2023-04-25T16:57:11.195Z,42.01
2023-04-25T16:59:40.769Z,41.43
2023-04-25T17:02:13.055Z,41.69
2023-04-25T17:04:40.902Z,42.07
2023-04-25T17:07:08.870Z,41.72
2023-04-25T17:09:36.507Z,41.89
2023-04-25T17:12:04.407Z,42.47
2023-04-25T17:14:33.348Z,42.23
2023-04-25T17:17:00.307Z,41.83
2023-04-25T17:19:28.522Z,41.85
2023-04-25T17:21:56.184Z,41.88
2023-04-25T17:24:22.970Z,41.63
2023-04-25T17:26:49.701Z,41.82
2023-04-25T17:29:16.461Z,41.46
2023-04-25T17:31:45.180Z,41.82
2023-04-25T17:34:16.691Z,41.73
2023-04-25T17:36:44.775Z,41.72
2023-04-25T17:39:11.579Z,41.66
2023-04-25T17:41:38.594Z,41.18
2023-04-25T17:44:05.480Z,41.92
2023-04-25T17:46:32.455Z,41.71
2023-04-25T17:48:59.362Z,41.48
2023-04-25T17:51:26.647Z,41.46
2023-04-25T17:53:53.504Z,41.92
2023-04-25T17:58:53.236Z,41.87
2023-04-25T18:01:20.270Z,41.83
2023-04-25T18:03:49.410Z,42.01
2023-04-25T18:06:18.136Z,42.08
2023-04-25T18:08:45.075Z,42.02
2023-04-25T18:11:12.427Z,42.11
2023-04-25T18:13:39.737Z,41.92
2023-04-25T18:16:07.181Z,42.49
2023-04-25T18:18:36.322Z,41.73
2023-04-25T18:21:05.850Z,41.84
2023-04-25T18:23:34.391Z,42.54
2023-04-25T18:26:02.827Z,41.91
2023-04-25T18:28:29.885Z,42.33
2023-04-25T18:30:57.028Z,42.54
2023-04-25T18:33:23.865Z,41.93
2023-04-25T18:35:58.208Z,42.55
2023-04-25T18:38:35.683Z,42.37
2023-04-25T18:41:26.963Z,42.01
2023-04-25T18:43:51.839Z,42.10
2023-04-25T18:46:22.632Z,42.31
2023-04-25T18:48:50.563Z,42.50
2023-04-25T18:51:17.529Z,42.63
2023-04-25T18:53:44.457Z,42.39
2023-04-25T18:56:11.270Z,42.31
2023-04-25T18:58:37.980Z,42.62
2023-04-25T19:01:05.104Z,42.68
2023-04-25T19:03:32.138Z,42.56
2023-04-25T19:06:00.043Z,42.34
2023-04-25T19:08:26.961Z,42.34
2023-04-25T19:10:54.104Z,42.34
2023-04-25T19:13:21.726Z,42.06
2023-04-25T19:15:49.294Z,42.59
2023-04-25T19:18:16.050Z,42.43
2023-04-25T19:20:43.905Z,42.44
2023-04-25T19:23:11.781Z,42.15
2023-04-25T19:25:38.592Z,42.01
2023-04-25T19:28:05.590Z,42.20
2023-04-25T19:30:33.024Z,42.17
2023-04-25T19:33:00.106Z,42.71
2023-04-25T19:35:30.955Z,42.41
2023-04-25T19:37:57.780Z,42.14
2023-04-25T19:40:26.029Z,42.85
2023-04-25T19:42:52.731Z,42.43
2023-04-25T19:45:19.510Z,42.56
2023-04-25T19:47:46.370Z,42.26
2023-04-25T19:50:13.209Z,42.75
2023-04-25T19:52:40.204Z,42.87
2023-04-25T19:55:07.789Z,42.35
2023-04-25T19:57:37.838Z,42.58
2023-04-25T20:00:10.872Z,42.83
2023-04-25T20:02:38.317Z,42.82
2023-04-25T20:05:07.196Z,42.60
2023-04-25T20:07:34.650Z,42.68
2023-04-25T20:10:02.104Z,42.88
2023-04-25T20:12:28.963Z,42.51
2023-04-25T20:14:56.823Z,42.70
2023-04-25T20:17:23.994Z,42.41
2023-04-25T20:19:50.751Z,42.23
2023-04-25T20:22:17.636Z,42.21
2023-04-25T20:24:44.629Z,42.15
2023-04-25T20:27:11.381Z,42.11
2023-04-25T20:29:38.187Z,42.60
2023-04-25T20:32:05.392Z,42.49
2023-04-25T20:34:32.238Z,42.47
2023-04-25T20:36:59.503Z,41.96
2023-04-25T20:39:26.373Z,42.54
2023-04-25T20:41:53.147Z,42.83
2023-04-25T20:44:22.786Z,42.52
2023-04-25T20:46:50.022Z,42.69
2023-04-25T20:49:16.748Z,42.23
2023-04-25T20:51:43.546Z,42.66
2023-04-25T20:54:11.158Z,42.46
2023-04-25T20:56:38.435Z,42.55
2023-04-25T20:59:05.125Z,42.36
2023-04-25T21:01:31.976Z,42.25
2023-04-25T21:03:59.285Z,42.77
2023-04-25T21:06:27.893Z,43.18
2023-04-25T21:08:54.766Z,42.45
2023-04-25T21:11:21.627Z,42.76
2023-04-25T21:13:48.489Z,42.83
2023-04-25T21:16:15.210Z,42.66
2023-04-25T21:18:41.891Z,42.51
2023-04-25T21:21:08.679Z,42.20
2023-04-25T21:23:35.528Z,42.76
2023-04-25T21:26:02.353Z,42.90
2023-04-25T21:28:29.146Z,42.56
2023-04-25T21:30:55.982Z,42.57
2023-04-25T21:33:22.723Z,42.54
2023-04-25T21:35:49.453Z,42.28
2023-04-25T21:38:16.424Z,42.62
2023-04-25T21:40:43.276Z,42.98
2023-04-25T21:43:10.035Z,42.68
2023-04-25T21:45:51.363Z,42.78
2023-04-25T21:48:23.453Z,42.74
2023-04-25T21:50:50.262Z,42.54
2023-04-25T21:53:16.965Z,42.89
2023-04-25T21:55:43.676Z,42.90
2023-04-25T21:58:10.385Z,42.41
2023-04-25T22:00:37.119Z,42.78
2023-04-25T22:03:04.020Z,42.53
2023-04-25T22:05:31.502Z,42.70
2023-04-25T22:08:01.284Z,42.72
2023-04-25T22:10:28.713Z,43.06
2023-04-25T22:12:58.599Z,42.29
2023-04-25T22:15:25.635Z,43.02
2023-04-25T22:17:55.486Z,42.61
2023-04-25T22:20:26.466Z,42.95
2023-04-25T22:22:54.795Z,42.55
2023-04-25T22:25:22.304Z,42.63
2023-04-25T22:27:49.521Z,42.72
2023-04-25T22:30:19.012Z,42.35
2023-04-25T22:32:46.115Z,42.37
2023-04-25T22:35:12.886Z,42.52
2023-04-25T22:37:41.556Z,42.68
2023-04-25T22:40:13.183Z,42.34
2023-04-25T22:42:40.775Z,42.67
2023-04-25T22:45:08.644Z,42.67
2023-04-25T22:47:37.349Z,42.65
2023-04-25T22:50:12.445Z,42.74
2023-04-25T22:52:39.820Z,42.73
2023-04-25T22:55:07.455Z,42.57
2023-04-25T22:57:37.713Z,42.96
2023-04-25T23:00:10.863Z,42.95
2023-04-25T23:02:37.758Z,42.32
2023-04-25T23:05:07.180Z,42.66
2023-04-25T23:07:35.100Z,42.50
2023-04-25T23:10:01.995Z,42.49
2023-04-25T23:12:28.784Z,42.61
2023-04-25T23:14:55.525Z,42.92
2023-04-25T23:17:22.690Z,42.84
2023-04-25T23:19:49.592Z,42.88
2023-04-25T23:22:16.378Z,42.96
2023-04-25T23:24:43.110Z,42.48
2023-04-25T23:27:09.880Z,42.69
2023-04-25T23:29:37.286Z,42.85
2023-04-25T23:32:04.482Z,42.32
2023-04-25T23:34:31.927Z,42.69
2023-04-25T23:37:01.665Z,42.72
2023-04-25T23:39:28.745Z,42.48
2023-04-25T23:41:55.956Z,42.71
2023-04-25T23:44:22.806Z,42.27
2023-04-25T23:46:50.086Z,42.39
2023-04-25T23:49:16.953Z,42.83
2023-04-25T23:51:43.706Z,42.85
2023-04-25T23:54:10.520Z,42.88
2023-04-25T23:56:37.315Z,42.84
2023-04-25T23:59:04.169Z,43.06
